METAR Formatted Surface Weather Observation
Issued by NWS

Home | Current Version | Previous Version | Text Only | Print | Product List | Glossary On
Versions: 1 2
000
SAUS41 KGYX 230500 COR
MTRNKT
METAR KNKT 230454Z 03009KT 10SM BKN009 BKN120 18/16 A2994 RMK AO2
SLP135 T01830156 402890183



USA.gov is the U.S. government's official web portal to all federal, state and local government web resources and services.